Time;durP1;ratioP1;P1;durP2;ratioP2;P2;SDS_P1;SDS_P2;PMS_P1;PMS_P2;Temp;Humidity;BMP_temperature;BMP_pressure;BME280_temperature;BME280_humidity;BME280_pressure;Samples;Min_cycle;Max_cycle;Signal;HPM_P1;HPM_P2
2022/10/26 00:01:21;;;;;;;11.07;2.17;;;;;;;;;;5101371;28;20202;-66
2022/10/26 00:03:49;;;;;;;6.70;2.27;;;;;;;;;;5101256;28;20675;-65
2022/10/26 00:06:18;;;;;;;10.57;2.20;;;;;;;;;;5101433;28;20244;-66
2022/10/26 00:08:46;;;;;;;6.90;2.53;;;;;;;;;;5101557;28;20289;-65
2022/10/26 00:11:15;;;;;;;13.70;2.50;;;;;;;;;;5101349;28;20576;-66
2022/10/26 00:13:42;;;;;;;6.03;2.17;;;;;;;;;;5101635;28;20257;-67
2022/10/26 00:16:11;;;;;;;8.63;2.17;;;;;;;;;;5101837;28;20260;-67
2022/10/26 00:18:39;;;;;;;7.43;2.23;;;;;;;;;;5090902;28;20661;-67
2022/10/26 00:21:07;;;;;;;7.33;2.20;;;;;;;;;;5101207;28;20262;-67
2022/10/26 00:23:35;;;;;;;8.17;2.03;;;;;;;;;;5100987;28;20284;-67
2022/10/26 00:26:03;;;;;;;8.17;2.30;;;;;;;;;;5101122;28;20218;-66
2022/10/26 00:28:32;;;;;;;9.87;2.00;;;;;;;;;;5101327;28;20208;-65
2022/10/26 00:31:01;;;;;;;10.27;2.60;;;;;;;;;;5100932;28;20236;-66
2022/10/26 00:33:29;;;;;;;6.90;2.73;;;;;;;;;;5100165;28;20303;-67
2022/10/26 00:35:59;;;;;;;8.60;2.20;;;;;;;;;;5099546;28;20209;-67
2022/10/26 00:38:27;;;;;;;5.13;1.73;;;;;;;;;;5100537;28;20210;-67
2022/10/26 00:40:55;;;;;;;8.97;2.63;;;;;;;;;;5100669;28;20293;-67
2022/10/26 00:43:36;;;;;;;12.37;2.43;;;;;;;;;;5100992;28;20257;-67
2022/10/26 00:46:06;;;;;;;7.40;2.10;;;;;;;;;;5100342;28;20242;-66
2022/10/26 00:48:35;;;;;;;10.37;2.60;;;;;;;;;;5100176;28;20210;-67
2022/10/26 00:51:04;;;;;;;5.80;2.23;;;;;;;;;;5100497;28;20244;-66
2022/10/26 00:53:32;;;;;;;6.80;2.90;;;;;;;;;;5099976;28;20310;-67
2022/10/26 00:56:03;;;;;;;8.67;2.27;;;;;;;;;;5100057;28;20260;-67
2022/10/26 00:58:31;;;;;;;9.50;2.67;;;;;;;;;;5100355;28;20232;-67
2022/10/26 01:01:00;;;;;;;6.60;2.90;;;;;;;;;;5100364;28;20206;-66
2022/10/26 01:03:34;;;;;;;8.90;2.60;;;;;;;;;;5099785;28;20669;-67
2022/10/26 01:06:03;;;;;;;7.37;2.43;;;;;;;;;;5100288;28;20201;-67
2022/10/26 01:08:31;;;;;;;12.43;2.07;;;;;;;;;;5099932;28;20245;-66
2022/10/26 01:10:59;;;;;;;10.07;2.77;;;;;;;;;;5100114;28;20240;-66
2022/10/26 01:13:29;;;;;;;6.57;2.40;;;;;;;;;;5100035;28;20221;-67
2022/10/26 01:16:03;;;;;;;6.80;2.00;;;;;;;;;;5099820;28;20229;-66
2022/10/26 01:18:35;;;;;;;12.27;2.77;;;;;;;;;;5099884;28;20220;-66
2022/10/26 01:21:24;;;;;;;12.33;2.70;;;;;;;;;;5099843;28;20696;-67
2022/10/26 01:23:59;;;;;;;5.67;2.40;;;;;;;;;;5099324;28;20236;-66
2022/10/26 01:26:34;;;;;;;5.17;2.03;;;;;;;;;;5086850;28;20205;-66
2022/10/26 01:29:14;;;;;;;5.90;2.33;;;;;;;;;;5099772;28;20231;-66
2022/10/26 01:31:47;;;;;;;4.43;2.00;;;;;;;;;;5099835;28;20692;-65
2022/10/26 01:34:19;;;;;;;8.17;2.27;;;;;;;;;;5099232;28;20264;-66
2022/10/26 01:36:50;;;;;;;5.63;2.07;;;;;;;;;;5099416;28;20237;-65
2022/10/26 01:39:19;;;;;;;8.50;2.20;;;;;;;;;;5099423;28;20212;-66
2022/10/26 01:41:48;;;;;;;7.20;3.30;;;;;;;;;;5099224;28;20296;-65
2022/10/26 01:44:18;;;;;;;7.30;2.50;;;;;;;;;;5099016;28;20312;-65
2022/10/26 01:46:49;;;;;;;9.73;2.20;;;;;;;;;;5098987;28;20201;-66
2022/10/26 01:49:18;;;;;;;10.43;2.57;;;;;;;;;;5099230;28;20244;-66
2022/10/26 01:51:48;;;;;;;6.07;2.13;;;;;;;;;;5099106;28;20237;-66
2022/10/26 01:54:16;;;;;;;7.40;2.10;;;;;;;;;;5098980;28;20256;-66
2022/10/26 01:56:47;;;;;;;8.63;2.20;;;;;;;;;;5099277;28;20699;-66
2022/10/26 01:59:25;;;;;;;6.43;2.20;;;;;;;;;;5099645;28;20202;-66
2022/10/26 02:02:10;;;;;;;7.93;2.20;;;;;;;;;;5098891;28;20236;-66
2022/10/26 02:04:45;;;;;;;12.17;2.40;;;;;;;;;;5088137;28;20256;-66
2022/10/26 02:07:18;;;;;;;8.47;2.70;;;;;;;;;;5099088;28;20244;-67
2022/10/26 02:09:50;;;;;;;6.70;2.67;;;;;;;;;;5098749;28;20241;-66
2022/10/26 02:12:20;;;;;;;9.70;2.50;;;;;;;;;;5098655;28;20209;-66
2022/10/26 02:14:49;;;;;;;11.67;2.43;;;;;;;;;;5098806;28;20309;-66
2022/10/26 02:17:22;;;;;;;11.73;2.43;;;;;;;;;;5098842;28;20202;-66
2022/10/26 02:19:52;;;;;;;8.00;2.17;;;;;;;;;;5084921;28;20201;-66
2022/10/26 02:22:22;;;;;;;8.47;2.23;;;;;;;;;;5098636;28;20244;-66
2022/10/26 02:24:51;;;;;;;9.00;3.27;;;;;;;;;;5098594;28;20266;-66
2022/10/26 02:27:21;;;;;;;8.40;2.63;;;;;;;;;;5098652;28;20273;-66
2022/10/26 02:29:50;;;;;;;10.47;2.20;;;;;;;;;;5098327;28;20244;-66
2022/10/26 02:32:19;;;;;;;11.53;2.37;;;;;;;;;;5098504;28;20917;-66
2022/10/26 02:34:48;;;;;;;5.80;2.33;;;;;;;;;;5098412;28;20256;-66
2022/10/26 02:37:19;;;;;;;8.30;2.77;;;;;;;;;;5098476;28;20229;-66
2022/10/26 02:39:48;;;;;;;9.43;2.90;;;;;;;;;;5098204;28;20635;-66
2022/10/26 02:42:15;;;;;;;5.77;2.43;;;;;;;;;;5098265;28;20205;-65
2022/10/26 02:44:46;;;;;;;9.70;3.57;;;;;;;;;;5098026;28;20271;-66
2022/10/26 02:47:14;;;;;;;8.43;2.83;;;;;;;;;;5098386;28;20289;-67
2022/10/26 02:49:42;;;;;;;7.03;2.87;;;;;;;;;;5097908;28;20229;-67
2022/10/26 02:52:15;;;;;;;7.13;2.60;;;;;;;;;;5097265;28;20197;-67
2022/10/26 02:54:50;;;;;;;8.53;2.93;;;;;;;;;;5096430;28;20664;-67
2022/10/26 02:57:19;;;;;;;8.40;2.40;;;;;;;;;;5094878;28;20273;-66
2022/10/26 02:59:47;;;;;;;11.57;3.73;;;;;;;;;;5096160;28;20623;-67
2022/10/26 03:02:16;;;;;;;11.33;3.30;;;;;;;;;;5094452;28;20232;-66
2022/10/26 03:04:44;;;;;;;10.10;2.70;;;;;;;;;;5096481;28;20672;-66
2022/10/26 03:07:12;;;;;;;6.73;2.60;;;;;;;;;;5096661;28;20285;-66
2022/10/26 03:09:40;;;;;;;7.67;2.63;;;;;;;;;;5096659;28;20289;-67
2022/10/26 03:12:09;;;;;;;14.57;2.80;;;;;;;;;;5096778;28;20829;-66
2022/10/26 03:14:36;;;;;;;7.30;2.40;;;;;;;;;;5094074;28;20248;-67
2022/10/26 03:17:04;;;;;;;9.30;2.60;;;;;;;;;;5096529;28;20288;-67
2022/10/26 03:19:32;;;;;;;9.13;2.77;;;;;;;;;;5096228;28;20240;-67
2022/10/26 03:22:00;;;;;;;13.63;3.20;;;;;;;;;;5096670;28;20244;-67
2022/10/26 03:24:31;;;;;;;13.13;3.20;;;;;;;;;;5096296;28;20253;-66
2022/10/26 03:26:58;;;;;;;7.17;2.73;;;;;;;;;;5096793;28;20229;-67
2022/10/26 03:29:30;;;;;;;12.10;2.57;;;;;;;;;;5096386;28;20258;-67
2022/10/26 03:32:01;;;;;;;8.00;2.57;;;;;;;;;;5095461;28;20262;-66
2022/10/26 03:34:28;;;;;;;9.37;3.07;;;;;;;;;;5096370;28;20245;-67
2022/10/26 03:36:57;;;;;;;9.83;2.87;;;;;;;;;;5094117;28;20213;-67
2022/10/26 03:39:25;;;;;;;15.97;3.50;;;;;;;;;;5096655;28;20263;-67
2022/10/26 03:41:54;;;;;;;10.93;3.27;;;;;;;;;;5096583;28;20208;-67
2022/10/26 03:44:22;;;;;;;8.47;2.93;;;;;;;;;;5096211;28;20688;-66
2022/10/26 03:46:51;;;;;;;9.13;3.33;;;;;;;;;;5096957;28;20259;-66
2022/10/26 03:49:21;;;;;;;13.43;3.27;;;;;;;;;;5096522;28;20705;-67
2022/10/26 03:51:49;;;;;;;13.60;3.37;;;;;;;;;;5096361;28;20237;-66
2022/10/26 03:54:17;;;;;;;9.37;2.93;;;;;;;;;;5096134;28;20213;-67
2022/10/26 03:56:45;;;;;;;9.33;4.33;;;;;;;;;;5096409;28;20198;-66
2022/10/26 03:59:12;;;;;;;7.30;2.67;;;;;;;;;;5096101;28;20193;-66
2022/10/26 04:01:40;;;;;;;10.00;2.97;;;;;;;;;;5097176;28;20261;-66
2022/10/26 04:04:09;;;;;;;13.97;2.70;;;;;;;;;;5096953;28;20225;-66
2022/10/26 04:06:37;;;;;;;14.57;2.87;;;;;;;;;;5097475;28;20231;-67
2022/10/26 04:09:07;;;;;;;10.03;3.33;;;;;;;;;;5097115;28;20209;-66
2022/10/26 04:11:34;;;;;;;8.20;2.73;;;;;;;;;;5100214;28;20205;-65
2022/10/26 04:14:02;;;;;;;8.90;2.97;;;;;;;;;;5101061;28;20253;-65
2022/10/26 04:16:30;;;;;;;9.33;3.10;;;;;;;;;;5100772;28;20201;-64
2022/10/26 04:19:00;;;;;;;7.37;2.90;;;;;;;;;;5100990;28;20213;-64
2022/10/26 04:21:34;;;;;;;8.17;4.57;;;;;;;;;;5101037;28;20205;-64
2022/10/26 04:24:04;;;;;;;10.73;3.43;;;;;;;;;;5100698;28;20229;-64
2022/10/26 04:26:32;;;;;;;9.43;3.50;;;;;;;;;;5100840;28;20701;-64
2022/10/26 04:29:00;;;;;;;8.80;3.37;;;;;;;;;;5100828;28;20244;-64
2022/10/26 04:31:27;;;;;;;10.30;3.53;;;;;;;;;;5100533;28;20209;-65
2022/10/26 04:33:55;;;;;;;9.73;3.43;;;;;;;;;;5100416;28;20229;-64
2022/10/26 04:36:23;;;;;;;11.77;3.60;;;;;;;;;;5100479;28;20639;-64
2022/10/26 04:38:52;;;;;;;14.37;4.23;;;;;;;;;;5100386;28;20296;-65
2022/10/26 04:41:19;;;;;;;11.83;3.70;;;;;;;;;;5100397;28;20756;-64
2022/10/26 04:43:47;;;;;;;13.93;4.33;;;;;;;;;;5100432;28;20268;-64
2022/10/26 04:46:14;;;;;;;8.23;3.10;;;;;;;;;;5100477;28;20253;-65
2022/10/26 04:48:43;;;;;;;12.23;5.83;;;;;;;;;;5099894;28;20605;-64
2022/10/26 04:51:11;;;;;;;9.87;3.67;;;;;;;;;;5100491;28;20676;-64
2022/10/26 04:53:39;;;;;;;9.37;3.80;;;;;;;;;;5094345;28;20249;-64
2022/10/26 04:56:08;;;;;;;8.60;3.33;;;;;;;;;;5091204;28;20230;-64
2022/10/26 04:58:36;;;;;;;12.73;4.07;;;;;;;;;;5099823;28;20231;-64
2022/10/26 05:01:04;;;;;;;12.03;3.43;;;;;;;;;;5100314;28;20237;-64
2022/10/26 05:03:32;;;;;;;14.47;4.03;;;;;;;;;;5099305;28;20228;-64
2022/10/26 05:05:59;;;;;;;12.03;3.80;;;;;;;;;;5099994;28;20249;-64
2022/10/26 05:08:28;;;;;;;9.17;4.27;;;;;;;;;;5099542;28;20201;-64
2022/10/26 05:10:55;;;;;;;11.43;4.40;;;;;;;;;;5096871;28;20210;-64
2022/10/26 05:13:24;;;;;;;18.83;4.80;;;;;;;;;;5099480;28;20225;-64
2022/10/26 05:15:53;;;;;;;14.87;4.50;;;;;;;;;;5094479;28;20255;-64
2022/10/26 05:18:21;;;;;;;16.67;4.73;;;;;;;;;;5099541;28;20197;-65
2022/10/26 05:20:52;;;;;;;15.17;4.53;;;;;;;;;;5099707;28;20665;-65
2022/10/26 05:23:20;;;;;;;16.23;5.00;;;;;;;;;;5099041;28;20263;-65
2022/10/26 05:25:47;;;;;;;10.50;4.13;;;;;;;;;;5099612;28;20312;-65
2022/10/26 05:28:16;;;;;;;10.90;4.57;;;;;;;;;;5099777;28;20240;-65
2022/10/26 05:30:45;;;;;;;15.47;5.30;;;;;;;;;;5099601;28;20235;-65
2022/10/26 05:33:13;;;;;;;11.83;4.30;;;;;;;;;;5099292;28;20237;-65
2022/10/26 05:35:41;;;;;;;13.80;4.63;;;;;;;;;;5099535;28;20293;-65
2022/10/26 05:38:09;;;;;;;20.17;4.63;;;;;;;;;;5099167;28;20637;-67
2022/10/26 05:40:37;;;;;;;17.73;4.67;;;;;;;;;;5099043;28;20220;-67
2022/10/26 05:43:04;;;;;;;10.10;4.33;;;;;;;;;;5099324;28;20236;-68
2022/10/26 05:45:32;;;;;;;19.37;4.90;;;;;;;;;;5098968;28;20225;-69
2022/10/26 05:48:01;;;;;;;13.40;4.17;;;;;;;;;;5098725;28;20205;-66
2022/10/26 05:50:30;;;;;;;17.67;4.80;;;;;;;;;;5098853;28;20208;-67
2022/10/26 05:52:59;;;;;;;8.87;3.93;;;;;;;;;;5098752;28;20579;-68
2022/10/26 05:55:27;;;;;;;14.97;4.00;;;;;;;;;;5098756;28;20233;-68
2022/10/26 05:57:55;;;;;;;16.57;4.93;;;;;;;;;;5099277;28;20652;-65
2022/10/26 06:00:24;;;;;;;13.67;4.43;;;;;;;;;;5098850;28;20632;-66
2022/10/26 06:03:08;;;;;;;15.43;4.90;;;;;;;;;;5098650;28;20673;-65
2022/10/26 06:05:42;;;;;;;13.73;4.20;;;;;;;;;;5098401;28;20205;-66
2022/10/26 06:08:10;;;;;;;14.10;4.77;;;;;;;;;;5098690;28;20233;-66
2022/10/26 06:10:38;;;;;;;12.87;4.67;;;;;;;;;;5098442;28;20288;-66
2022/10/26 06:13:06;;;;;;;20.83;7.97;;;;;;;;;;5098737;28;20236;-66
2022/10/26 06:15:37;;;;;;;21.83;5.33;;;;;;;;;;5098782;28;20265;-65
2022/10/26 06:18:07;;;;;;;17.17;4.53;;;;;;;;;;5098295;28;20236;-66
2022/10/26 06:20:45;;;;;;;11.47;4.30;;;;;;;;;;5098913;28;20237;-65
2022/10/26 06:23:20;;;;;;;24.10;5.67;;;;;;;;;;5098447;28;20615;-66
2022/10/26 06:25:51;;;;;;;14.40;5.93;;;;;;;;;;5098208;28;20216;-66
2022/10/26 06:28:25;;;;;;;16.03;5.33;;;;;;;;;;5098309;28;20237;-65
2022/10/26 06:30:53;;;;;;;12.10;5.03;;;;;;;;;;5098591;28;20215;-66
2022/10/26 06:33:21;;;;;;;20.10;4.33;;;;;;;;;;5097232;28;20256;-66
2022/10/26 06:36:02;;;;;;;18.07;4.93;;;;;;;;;;5098212;28;20288;-65
2022/10/26 06:38:32;;;;;;;16.50;4.83;;;;;;;;;;5098261;28;20237;-66
2022/10/26 06:41:01;;;;;;;11.77;4.87;;;;;;;;;;5097964;28;20260;-67
2022/10/26 06:43:31;;;;;;;16.93;5.13;;;;;;;;;;5098230;28;20343;-66
2022/10/26 06:46:05;;;;;;;11.77;4.43;;;;;;;;;;5098192;28;20292;-66
2022/10/26 06:48:35;;;;;;;15.27;4.83;;;;;;;;;;5097609;28;20210;-66
2022/10/26 06:51:04;;;;;;;15.07;5.13;;;;;;;;;;5098145;28;20258;-66
2022/10/26 06:53:35;;;;;;;17.97;5.40;;;;;;;;;;5097738;28;20268;-66
2022/10/26 06:56:03;;;;;;;19.37;5.37;;;;;;;;;;5097817;28;20253;-66
2022/10/26 06:58:36;;;;;;;16.83;5.50;;;;;;;;;;5098026;28;20288;-66
2022/10/26 07:01:04;;;;;;;27.00;5.80;;;;;;;;;;5098104;28;20243;-66
2022/10/26 07:03:34;;;;;;;18.57;5.50;;;;;;;;;;5097716;28;20225;-66
2022/10/26 07:06:03;;;;;;;16.33;5.40;;;;;;;;;;5097739;28;20641;-66
2022/10/26 07:08:34;;;;;;;18.17;5.73;;;;;;;;;;5097979;28;20232;-66
2022/10/26 07:11:04;;;;;;;16.90;5.33;;;;;;;;;;5098032;28;20269;-66
2022/10/26 07:13:32;;;;;;;22.07;5.97;;;;;;;;;;5097800;28;20660;-66
2022/10/26 07:16:01;;;;;;;19.67;5.80;;;;;;;;;;5098021;28;20359;-66
2022/10/26 07:18:29;;;;;;;13.60;5.97;;;;;;;;;;5097688;28;20700;-66
2022/10/26 07:20:58;;;;;;;21.60;6.37;;;;;;;;;;5097485;28;20217;-66
2022/10/26 07:23:27;;;;;;;15.13;5.33;;;;;;;;;;5097733;28;20261;-66
2022/10/26 07:25:59;;;;;;;20.17;6.30;;;;;;;;;;5097755;28;20768;-66
2022/10/26 07:28:27;;;;;;;13.83;5.80;;;;;;;;;;5097825;28;20646;-66
2022/10/26 07:30:58;;;;;;;13.97;5.63;;;;;;;;;;5097749;28;20239;-66
2022/10/26 07:33:25;;;;;;;15.17;5.30;;;;;;;;;;5097405;28;20723;-66
2022/10/26 07:35:54;;;;;;;12.53;5.73;;;;;;;;;;5097734;28;20288;-66
2022/10/26 07:38:22;;;;;;;22.53;9.03;;;;;;;;;;5097550;28;20233;-66
2022/10/26 07:40:53;;;;;;;17.43;6.07;;;;;;;;;;5097657;28;20244;-66
2022/10/26 07:43:20;;;;;;;18.73;6.03;;;;;;;;;;5097453;28;20253;-66
2022/10/26 07:45:49;;;;;;;21.47;6.10;;;;;;;;;;5099380;28;20237;-66
2022/10/26 07:48:17;;;;;;;14.63;6.20;;;;;;;;;;5101576;28;20229;-65
2022/10/26 07:50:44;;;;;;;22.13;5.93;;;;;;;;;;5101340;28;20237;-66
2022/10/26 07:53:12;;;;;;;16.47;6.20;;;;;;;;;;5101100;28;20825;-65
2022/10/26 07:55:40;;;;;;;19.63;5.87;;;;;;;;;;5101170;28;20327;-65
2022/10/26 07:58:09;;;;;;;16.67;5.67;;;;;;;;;;5101213;28;20284;-66
2022/10/26 08:00:36;;;;;;;20.33;6.30;;;;;;;;;;5101111;28;20237;-65
2022/10/26 08:03:04;;;;;;;16.13;6.83;;;;;;;;;;5101089;28;20231;-65
2022/10/26 08:05:32;;;;;;;15.30;5.87;;;;;;;;;;5101270;28;20231;-65
2022/10/26 08:08:00;;;;;;;19.17;6.03;;;;;;;;;;5100857;28;20332;-66
2022/10/26 08:10:29;;;;;;;21.47;6.47;;;;;;;;;;5101206;28;20206;-64
2022/10/26 08:12:57;;;;;;;21.30;6.20;;;;;;;;;;5101177;28;20251;-64
2022/10/26 08:15:26;;;;;;;26.87;7.37;;;;;;;;;;5101114;28;20229;-66
2022/10/26 08:17:54;;;;;;;20.53;6.17;;;;;;;;;;5100687;28;20244;-65
2022/10/26 08:20:21;;;;;;;17.03;5.97;;;;;;;;;;5100744;28;20663;-65
2022/10/26 08:22:49;;;;;;;20.30;5.40;;;;;;;;;;5100803;28;20233;-65
2022/10/26 08:25:17;;;;;;;26.27;6.53;;;;;;;;;;5100624;28;20575;-66
2022/10/26 08:27:48;;;;;;;24.67;7.07;;;;;;;;;;5100486;28;20233;-65
2022/10/26 08:30:16;;;;;;;15.10;6.10;;;;;;;;;;5100575;28;20205;-66
2022/10/26 08:32:45;;;;;;;18.33;6.60;;;;;;;;;;5100186;28;20263;-66
2022/10/26 08:35:13;;;;;;;17.63;6.80;;;;;;;;;;5100622;28;20225;-65
2022/10/26 08:37:40;;;;;;;15.13;7.00;;;;;;;;;;5100537;28;20233;-66
2022/10/26 08:40:10;;;;;;;12.77;6.07;;;;;;;;;;5100745;28;20662;-66
2022/10/26 08:42:40;;;;;;;18.43;6.33;;;;;;;;;;5100493;28;20699;-65
2022/10/26 08:45:12;;;;;;;16.43;6.87;;;;;;;;;;5100490;28;20260;-65
2022/10/26 08:47:43;;;;;;;13.03;6.60;;;;;;;;;;5099935;28;20232;-66
2022/10/26 08:50:14;;;;;;;17.67;6.43;;;;;;;;;;5100172;28;20560;-65
2022/10/26 08:52:47;;;;;;;17.77;6.60;;;;;;;;;;5100335;28;20233;-65
2022/10/26 08:55:17;;;;;;;19.03;6.77;;;;;;;;;;5100001;28;20751;-66
2022/10/26 08:57:48;;;;;;;19.90;6.67;;;;;;;;;;5099364;28;20284;-65
2022/10/26 09:00:18;;;;;;;15.07;6.63;;;;;;;;;;5099914;28;20228;-66
2022/10/26 09:02:49;;;;;;;13.30;6.43;;;;;;;;;;5099946;28;20197;-66
2022/10/26 09:05:20;;;;;;;20.20;6.07;;;;;;;;;;5086635;28;20756;-66
2022/10/26 09:07:51;;;;;;;21.37;6.60;;;;;;;;;;5099625;28;20313;-66
2022/10/26 09:10:24;;;;;;;16.07;6.57;;;;;;;;;;5100260;28;20536;-66
2022/10/26 09:12:54;;;;;;;15.17;6.53;;;;;;;;;;5099740;28;20326;-67
2022/10/26 09:15:26;;;;;;;19.43;6.17;;;;;;;;;;5099793;28;20261;-65
2022/10/26 09:17:57;;;;;;;14.47;5.70;;;;;;;;;;5099564;28;20229;-66
2022/10/26 09:20:40;;;;;;;13.93;6.13;;;;;;;;;;5099786;28;20237;-66
2022/10/26 09:23:13;;;;;;;21.33;7.03;;;;;;;;;;5099685;28;20236;-66
2022/10/26 09:25:41;;;;;;;13.43;5.57;;;;;;;;;;5099756;28;20205;-66
2022/10/26 09:28:12;;;;;;;20.17;6.17;;;;;;;;;;5099408;28;20321;-66
2022/10/26 09:30:40;;;;;;;16.97;6.00;;;;;;;;;;5099353;28;20293;-66
2022/10/26 09:33:14;;;;;;;18.20;6.57;;;;;;;;;;5098911;28;20288;-66
2022/10/26 09:35:44;;;;;;;17.77;6.40;;;;;;;;;;5099397;28;20284;-65
2022/10/26 09:38:14;;;;;;;19.47;6.97;;;;;;;;;;5099971;28;20206;-65
2022/10/26 09:40:47;;;;;;;16.53;5.50;;;;;;;;;;5099345;28;20217;-67
2022/10/26 09:43:18;;;;;;;16.30;5.73;;;;;;;;;;5099186;28;20552;-66
2022/10/26 09:45:47;;;;;;;24.50;5.73;;;;;;;;;;5098920;28;20217;-65
2022/10/26 09:48:20;;;;;;;17.80;6.40;;;;;;;;;;5098857;28;20284;-65
2022/10/26 09:50:50;;;;;;;10.80;4.83;;;;;;;;;;5099324;28;20217;-65
2022/10/26 09:53:17;;;;;;;21.03;5.37;;;;;;;;;;5099016;28;20289;-65
2022/10/26 09:55:46;;;;;;;17.60;5.67;;;;;;;;;;5098825;28;20237;-65
2022/10/26 09:58:15;;;;;;;14.73;5.07;;;;;;;;;;5098981;28;20213;-65
2022/10/26 10:00:44;;;;;;;11.87;4.53;;;;;;;;;;5099089;28;20237;-65
2022/10/26 10:03:19;;;;;;;16.07;5.00;;;;;;;;;;5098489;28;20213;-66
2022/10/26 10:05:48;;;;;;;17.00;5.60;;;;;;;;;;5098899;28;20209;-66
2022/10/26 10:08:20;;;;;;;16.37;5.40;;;;;;;;;;5098586;28;20227;-66
2022/10/26 10:10:55;;;;;;;12.47;4.90;;;;;;;;;;5098884;28;20292;-66
2022/10/26 10:13:23;;;;;;;14.30;5.40;;;;;;;;;;5098780;28;20268;-66
2022/10/26 10:15:51;;;;;;;16.67;5.13;;;;;;;;;;5098764;28;20288;-66
2022/10/26 10:18:20;;;;;;;10.47;4.80;;;;;;;;;;5098245;28;20618;-66
2022/10/26 10:20:52;;;;;;;14.57;5.07;;;;;;;;;;5098404;28;20292;-65
2022/10/26 10:23:25;;;;;;;10.80;3.97;;;;;;;;;;5098460;28;20700;-65
2022/10/26 10:25:59;;;;;;;18.37;4.93;;;;;;;;;;5098336;28;20293;-66
2022/10/26 10:28:27;;;;;;;13.53;4.50;;;;;;;;;;5098221;28;20312;-66
2022/10/26 10:30:58;;;;;;;16.70;4.73;;;;;;;;;;5098107;28;20241;-66
2022/10/26 10:33:36;;;;;;;15.57;5.27;;;;;;;;;;5098152;28;20251;-66
2022/10/26 10:36:06;;;;;;;13.77;4.70;;;;;;;;;;5098098;28;20298;-66
2022/10/26 10:38:38;;;;;;;12.73;5.00;;;;;;;;;;5098248;28;20548;-66
2022/10/26 10:41:14;;;;;;;12.57;4.20;;;;;;;;;;5098040;28;20274;-66
2022/10/26 10:43:43;;;;;;;13.10;4.50;;;;;;;;;;5097921;28;20236;-67
2022/10/26 10:46:17;;;;;;;12.93;4.10;;;;;;;;;;5098237;28;20227;-67
2022/10/26 10:48:46;;;;;;;12.87;4.57;;;;;;;;;;5097566;28;20327;-67
2022/10/26 10:51:18;;;;;;;14.73;4.83;;;;;;;;;;5097931;28;20263;-67
2022/10/26 10:53:47;;;;;;;11.40;3.73;;;;;;;;;;5097963;28;20235;-67
2022/10/26 10:56:21;;;;;;;14.93;4.60;;;;;;;;;;5097786;28;20233;-67
2022/10/26 10:58:55;;;;;;;12.93;4.50;;;;;;;;;;5098179;28;20288;-67
2022/10/26 11:01:25;;;;;;;9.70;3.70;;;;;;;;;;5098038;28;20212;-67
2022/10/26 11:04:03;;;;;;;15.60;4.40;;;;;;;;;;5098050;28;20230;-67
2022/10/26 11:06:36;;;;;;;12.37;3.90;;;;;;;;;;5097916;28;20672;-67
2022/10/26 11:09:05;;;;;;;17.07;4.60;;;;;;;;;;5097585;28;20228;-67
2022/10/26 11:11:34;;;;;;;11.13;4.50;;;;;;;;;;5097958;28;20269;-67
2022/10/26 11:14:04;;;;;;;13.70;5.27;;;;;;;;;;5097484;28;20233;-67
2022/10/26 11:16:35;;;;;;;11.93;3.30;;;;;;;;;;5094265;28;20269;-67
2022/10/26 11:19:06;;;;;;;6.93;4.00;;;;;;;;;;5090554;28;20199;-67
2022/10/26 11:21:36;;;;;;;10.27;4.03;;;;;;;;;;5097220;28;20237;-65
2022/10/26 11:24:10;;;;;;;13.23;4.27;;;;;;;;;;5097239;28;20273;-66
2022/10/26 11:26:40;;;;;;;15.90;4.33;;;;;;;;;;5097577;28;20212;-66
2022/10/26 11:29:18;;;;;;;11.80;4.40;;;;;;;;;;5097296;28;20596;-66
2022/10/26 11:31:50;;;;;;;10.67;4.20;;;;;;;;;;5097649;28;20206;-66
2022/10/26 11:34:23;;;;;;;15.47;4.37;;;;;;;;;;5097378;28;20252;-67
2022/10/26 11:36:56;;;;;;;10.40;4.07;;;;;;;;;;5097644;28;20604;-66
2022/10/26 11:39:28;;;;;;;16.23;5.20;;;;;;;;;;5097659;28;20233;-66
2022/10/26 11:42:01;;;;;;;15.70;4.13;;;;;;;;;;5097128;28;20262;-66
2022/10/26 11:44:34;;;;;;;14.90;3.83;;;;;;;;;;5097387;28;20656;-66
2022/10/26 11:47:03;;;;;;;12.60;3.87;;;;;;;;;;5097374;28;20239;-66
2022/10/26 11:49:38;;;;;;;13.13;3.90;;;;;;;;;;5097285;28;20279;-66
2022/10/26 11:52:09;;;;;;;14.13;5.10;;;;;;;;;;5097499;28;20687;-65
2022/10/26 11:54:39;;;;;;;11.93;4.63;;;;;;;;;;5097266;28;20741;-65
2022/10/26 11:57:07;;;;;;;7.57;3.77;;;;;;;;;;5097091;28;20244;-65
2022/10/26 11:59:37;;;;;;;15.90;4.33;;;;;;;;;;5097410;28;20207;-65
2022/10/26 12:02:07;;;;;;;10.70;3.00;;;;;;;;;;5096846;28;20254;-65
2022/10/26 12:04:37;;;;;;;18.70;4.30;;;;;;;;;;5097331;28;20263;-66
2022/10/26 12:07:08;;;;;;;14.27;4.67;;;;;;;;;;5097451;28;20234;-66
2022/10/26 12:09:38;;;;;;;14.67;3.40;;;;;;;;;;5096945;28;20264;-66
2022/10/26 12:12:09;;;;;;;7.73;3.50;;;;;;;;;;5097074;28;20634;-65
2022/10/26 12:14:40;;;;;;;8.30;3.50;;;;;;;;;;5096786;28;20645;-65
2022/10/26 12:17:10;;;;;;;10.43;3.57;;;;;;;;;;5097023;28;20224;-65
2022/10/26 12:19:42;;;;;;;10.17;3.33;;;;;;;;;;5097212;28;20230;-65
2022/10/26 12:22:11;;;;;;;10.07;3.60;;;;;;;;;;5097270;28;20240;-65
2022/10/26 12:24:45;;;;;;;8.87;3.27;;;;;;;;;;5097021;28;20260;-65
2022/10/26 12:27:31;;;;;;;12.27;3.30;;;;;;;;;;5097187;28;20205;-65
2022/10/26 12:30:22;;;;;;;9.40;3.37;;;;;;;;;;5096898;28;20257;-65
2022/10/26 12:32:51;;;;;;;12.33;3.83;;;;;;;;;;5098742;28;20235;-65
2022/10/26 12:35:33;;;;;;;11.93;3.20;;;;;;;;;;5100646;28;20225;-65
2022/10/26 12:38:01;;;;;;;11.60;4.23;;;;;;;;;;5100571;28;20265;-65
2022/10/26 12:40:41;;;;;;;10.93;4.13;;;;;;;;;;5100555;28;20605;-66
2022/10/26 12:43:27;;;;;;;7.73;4.13;;;;;;;;;;5100906;28;20244;-65
2022/10/26 12:46:10;;;;;;;11.40;3.80;;;;;;;;;;5100926;28;20237;-66
2022/10/26 12:48:41;;;;;;;10.60;3.40;;;;;;;;;;5099907;28;20236;-65
2022/10/26 12:51:41;;;;;;;16.80;4.00;;;;;;;;;;5100481;28;20805;-65
2022/10/26 12:54:17;;;;;;;9.53;3.17;;;;;;;;;;5100039;28;20268;-65
2022/10/26 12:56:50;;;;;;;14.07;3.30;;;;;;;;;;5100379;28;20223;-65
2022/10/26 12:59:22;;;;;;;10.93;3.17;;;;;;;;;;5100654;28;20285;-65
2022/10/26 13:02:08;;;;;;;11.47;3.43;;;;;;;;;;5099746;28;20247;-65
2022/10/26 13:04:48;;;;;;;10.53;3.00;;;;;;;;;;5100096;28;20258;-65
2022/10/26 13:07:23;;;;;;;13.43;3.17;;;;;;;;;;5100205;28;20240;-65
2022/10/26 13:10:01;;;;;;;9.50;3.17;;;;;;;;;;5100033;28;20247;-66
2022/10/26 13:12:36;;;;;;;9.87;3.67;;;;;;;;;;5100189;28;20202;-65
2022/10/26 13:15:06;;;;;;;12.77;3.90;;;;;;;;;;5086108;28;20267;-65
2022/10/26 13:17:34;;;;;;;9.67;2.87;;;;;;;;;;5100163;28;20231;-67
2022/10/26 13:20:03;;;;;;;12.30;3.37;;;;;;;;;;5100523;28;20199;-67
2022/10/26 13:22:32;;;;;;;9.97;3.33;;;;;;;;;;5099843;28;20292;-67
2022/10/26 13:25:01;;;;;;;14.50;3.00;;;;;;;;;;5100387;28;20899;-67
2022/10/26 13:27:47;;;;;;;10.20;3.40;;;;;;;;;;5099769;28;20210;-67
2022/10/26 13:30:21;;;;;;;12.27;3.07;;;;;;;;;;5099441;28;20258;-66
2022/10/26 13:32:50;;;;;;;8.17;2.90;;;;;;;;;;5099085;28;20209;-67
2022/10/26 13:35:19;;;;;;;15.70;3.63;;;;;;;;;;5099485;28;20261;-67
2022/10/26 13:37:49;;;;;;;10.33;3.30;;;;;;;;;;5086265;28;20207;-67
2022/10/26 13:40:18;;;;;;;11.43;4.80;;;;;;;;;;5099516;28;20212;-67
2022/10/26 13:42:46;;;;;;;11.50;3.00;;;;;;;;;;5099141;28;20666;-67
2022/10/26 13:45:16;;;;;;;8.63;3.10;;;;;;;;;;5099656;28;20225;-67
2022/10/26 13:47:47;;;;;;;11.07;3.33;;;;;;;;;;5099407;28;20239;-66
2022/10/26 13:50:16;;;;;;;13.03;3.20;;;;;;;;;;5099349;28;20232;-66
2022/10/26 13:52:45;;;;;;;8.60;2.53;;;;;;;;;;5099192;28;20641;-66
2022/10/26 13:55:17;;;;;;;10.10;3.27;;;;;;;;;;5100216;28;20248;-66
2022/10/26 13:57:51;;;;;;;11.20;2.97;;;;;;;;;;5099287;28;20649;-66
2022/10/26 14:00:20;;;;;;;8.43;2.80;;;;;;;;;;5099315;28;20210;-67
2022/10/26 14:02:49;;;;;;;12.90;2.90;;;;;;;;;;5099053;28;20239;-66
2022/10/26 14:05:18;;;;;;;11.00;4.00;;;;;;;;;;5098669;28;20710;-67
2022/10/26 14:07:48;;;;;;;9.20;3.03;;;;;;;;;;5098817;28;20204;-66
2022/10/26 14:10:25;;;;;;;7.73;2.90;;;;;;;;;;5098882;28;20238;-67
2022/10/26 14:12:53;;;;;;;9.43;2.63;;;;;;;;;;5098984;28;20694;-67
2022/10/26 14:15:24;;;;;;;10.73;3.27;;;;;;;;;;5098428;28;20310;-66
2022/10/26 14:17:54;;;;;;;12.37;2.73;;;;;;;;;;5098205;28;20585;-67
2022/10/26 14:20:23;;;;;;;9.23;2.40;;;;;;;;;;5098964;28;20288;-67
2022/10/26 14:22:51;;;;;;;8.80;2.77;;;;;;;;;;5098624;28;20237;-66
2022/10/26 14:25:20;;;;;;;8.80;2.60;;;;;;;;;;5098801;28;20304;-67
2022/10/26 14:28:20;;;;;;;15.07;3.03;;;;;;;;;;5099034;28;20606;-67
2022/10/26 14:30:48;;;;;;;12.47;2.90;;;;;;;;;;5098996;28;20255;-67
2022/10/26 14:33:23;;;;;;;9.77;2.93;;;;;;;;;;5098433;28;20644;-67
2022/10/26 14:35:51;;;;;;;9.70;2.50;;;;;;;;;;5098185;28;20294;-67
2022/10/26 14:38:20;;;;;;;5.00;3.33;;;;;;;;;;5097982;28;20235;-67
2022/10/26 14:40:48;;;;;;;8.70;2.83;;;;;;;;;;5098335;28;20205;-67
2022/10/26 14:43:18;;;;;;;13.63;3.93;;;;;;;;;;5098141;28;20254;-67
2022/10/26 14:45:47;;;;;;;8.23;3.20;;;;;;;;;;5098396;28;20241;-67
2022/10/26 14:48:23;;;;;;;13.00;3.07;;;;;;;;;;5098102;28;20253;-67
2022/10/26 14:51:00;;;;;;;9.27;3.03;;;;;;;;;;5098403;28;20226;-67
2022/10/26 14:53:33;;;;;;;7.40;2.70;;;;;;;;;;5097840;28;20305;-67